DBBB/COO METAR and TAF weather

Enter ICAO airport designator
Station Type Date Time Source
DBBB METAR 2021/03/01 22:00 UTC NOAA

DBBB 012200Z 22010KT 8000 FEW012 29/27 Q1008 NOSIG


Station Type Date Time Source
DBBB Decoded METAR 2021/03/01 22:00 UTC NOAA

Cotonou, Benin (DBBB) 06-21N 002-23E 9M
Mar 01, 2021 - 05:00 PM EST / 2021.03.01 2200 UTC
Wind: from the SW (220 degrees) at 12 MPH (10 KT):0
Visibility: 4 mile(s):0
Sky conditions: mostly clear
Temperature: 84 F (29 C)
Dew Point: 80 F (27 C)
Relative Humidity: 88%
Pressure (altimeter): 29.77 in. Hg (1008 hPa)
ob: DBBB 012200Z 22010KT 8000 FEW012 29/27 Q1008 NOSIG
cycle: 22

Station Type Date Time Source
DBBB TAF 2021/03/01 18:06 UTC NOAA

TAF TAF DBBB 011700Z 0118/0224 22010KT 9999 SCT012 PROB30 0203/0209 VRB02KT BKN010

Example: see airport list